Tuesday, February 20, 2018, 3:30 PM GMT
Back to Local

CWJO, Jonquiere Automated Reporting Station

Location: , , Canada Lat: 48.417
Local Time: 3:30 PM GMT (15:30 GMT) Lon: -71.217
Time Zone: GMT Elev: 436 ft

Show me the last for .
Show Coded

Time T Td Feel RH Dir Speed Gust Alt SLP Vis Weather Sky Remarks
2018-02-20 14:00 18 13 11 81 230° 5 - - 30.40 0 None
2018-02-20 13:00 18 13 9 80 250° 7 - - 30.41 0 None
2018-02-20 12:00 19 14 8 82 240° 9 - - 30.39 0 None
2018-02-20 11:00 20 15 8 82 240° 12 - - 30.37 0 None
2018-02-20 10:00 23 19 13 85 240° 9 - - 30.35 0 None
2018-02-20 09:00 26 22 15 87 240° 10 - - 30.31 0 None
2018-02-20 08:00 31 28 22 91 290° 10 - - 30.29 0 None
2018-02-20 07:00 31 29 23 90 280° 9 - - 30.28 0 None
2018-02-20 06:00 31 29 24 88 280° 8 - - 30.28 0 None
2018-02-20 05:00 32 29 25 88 280° 8 - - 30.24 0 None
2018-02-20 04:00 32 28 25 86 290° 8 - - 30.24 0 None
2018-02-20 03:00 32 29 25 87 310° 8 - - 30.23 0 None
2018-02-20 02:00 33 28 25 80 320° 10 - - 30.21 0 None
2018-02-20 01:00 37 25 32 62 280° 6 - - 30.19 0 None
2018-02-20 00:00 37 24 33 59 250° 5 - - 30.17 0 None
2018-02-19 23:00 37 23 35 56 260° 3 - - 30.15 0 None
2018-02-19 22:00 38 23 32 55 240° 7 - - 30.15 0 None
2018-02-19 21:00 37 23 33 57 260° 5 - - 30.14 0 None
2018-02-19 20:00 38 23 - 54 220° 2 - - 30.13 0 None
2018-02-19 19:00 37 23 - 57 130° 2 - - 30.11 0 None
2018-02-19 18:00 37 22 32 55 120° 6 - - 30.12 0 None
2018-02-19 17:00 34 23 30 64 80° 5 - - 30.16 0 1-hr Precip Total: 0.04"
2018-02-19 16:00 32 22 27 68 110° 5 - - 30.17 0 None

Support USWX by starting your Amazon purchase here.